sensor_id;sensor_type;location;lat;lon;timestamp;pressure;altitude;pressure_sealevel;temperature;humidity
43824;BME280;29470;53.550;9.926;2023-01-25T00:00:28;103437.06;;;2.50;85.72
43824;BME280;29470;53.550;9.926;2023-01-25T00:05:31;103422.50;;;2.38;85.83
43824;BME280;29470;53.550;9.926;2023-01-25T00:10:36;103411.84;;;2.35;84.90
43824;BME280;29470;53.550;9.926;2023-01-25T00:15:39;103419.75;;;2.37;87.94
43824;BME280;29470;53.550;9.926;2023-01-25T00:20:42;103413.94;;;2.32;86.55
43824;BME280;29470;53.550;9.926;2023-01-25T00:25:46;103399.44;;;2.49;84.93
43824;BME280;29470;53.550;9.926;2023-01-25T00:30:49;103401.25;;;2.20;85.28
43824;BME280;29470;53.550;9.926;2023-01-25T00:35:55;103401.34;;;2.45;85.70
43824;BME280;29470;53.550;9.926;2023-01-25T00:40:59;103399.13;;;2.29;85.64
43824;BME280;29470;53.550;9.926;2023-01-25T00:46:02;103389.59;;;2.28;86.18
43824;BME280;29470;53.550;9.926;2023-01-25T00:51:05;103389.13;;;2.31;85.67
43824;BME280;29470;53.550;9.926;2023-01-25T00:56:10;103376.72;;;2.10;86.11
43824;BME280;29470;53.550;9.926;2023-01-25T01:01:13;103370.53;;;1.90;87.58
43824;BME280;29470;53.550;9.926;2023-01-25T01:06:16;103368.63;;;2.01;88.13
43824;BME280;29470;53.550;9.926;2023-01-25T01:11:20;103378.88;;;1.95;88.98
43824;BME280;29470;53.550;9.926;2023-01-25T01:16:24;103368.91;;;1.91;87.16
43824;BME280;29470;53.550;9.926;2023-01-25T01:21:28;103365.66;;;1.92;88.25
43824;BME280;29470;53.550;9.926;2023-01-25T01:26:32;103379.03;;;1.61;88.61
43824;BME280;29470;53.550;9.926;2023-01-25T01:31:35;103370.94;;;1.46;90.18
43824;BME280;29470;53.550;9.926;2023-01-25T01:36:54;103368.13;;;1.62;90.13
43824;BME280;29470;53.550;9.926;2023-01-25T01:41:59;103368.06;;;1.73;91.04
43824;BME280;29470;53.550;9.926;2023-01-25T01:47:02;103364.13;;;1.75;90.06
43824;BME280;29470;53.550;9.926;2023-01-25T01:52:09;103358.06;;;1.81;90.40
43824;BME280;29470;53.550;9.926;2023-01-25T01:57:19;103343.59;;;1.92;88.70
43824;BME280;29470;53.550;9.926;2023-01-25T02:02:24;103351.00;;;1.55;89.68
43824;BME280;29470;53.550;9.926;2023-01-25T02:07:31;103344.28;;;1.44;92.24
43824;BME280;29470;53.550;9.926;2023-01-25T02:12:37;103338.44;;;1.57;91.58
43824;BME280;29470;53.550;9.926;2023-01-25T02:17:41;103347.50;;;1.60;92.19
43824;BME280;29470;53.550;9.926;2023-01-25T02:22:50;103338.19;;;1.61;92.17
43824;BME280;29470;53.550;9.926;2023-01-25T02:28:01;103336.34;;;1.60;92.65
43824;BME280;29470;53.550;9.926;2023-01-25T02:33:05;103340.84;;;1.38;93.95
43824;BME280;29470;53.550;9.926;2023-01-25T02:38:11;103327.69;;;1.12;94.18
43824;BME280;29470;53.550;9.926;2023-01-25T02:43:17;103330.47;;;1.25;94.37
43824;BME280;29470;53.550;9.926;2023-01-25T02:48:19;103310.75;;;1.18;94.64
43824;BME280;29470;53.550;9.926;2023-01-25T02:53:23;103313.13;;;1.06;96.35
43824;BME280;29470;53.550;9.926;2023-01-25T02:58:29;103307.03;;;1.34;96.13
43824;BME280;29470;53.550;9.926;2023-01-25T03:03:33;103296.28;;;1.47;94.43
43824;BME280;29470;53.550;9.926;2023-01-25T03:08:36;103303.47;;;1.50;95.05
43824;BME280;29470;53.550;9.926;2023-01-25T03:13:40;103297.44;;;1.55;95.71
43824;BME280;29470;53.550;9.926;2023-01-25T03:18:43;103290.72;;;1.44;93.17
43824;BME280;29470;53.550;9.926;2023-01-25T03:23:47;103284.94;;;1.45;93.98
43824;BME280;29470;53.550;9.926;2023-01-25T03:28:59;103274.72;;;1.51;93.65
43824;BME280;29470;53.550;9.926;2023-01-25T03:34:02;103265.72;;;1.42;94.41
43824;BME280;29470;53.550;9.926;2023-01-25T03:39:09;103267.88;;;1.22;94.05
43824;BME280;29470;53.550;9.926;2023-01-25T03:44:16;103264.31;;;1.38;94.52
43824;BME280;29470;53.550;9.926;2023-01-25T03:49:20;103260.25;;;1.16;94.02
43824;BME280;29470;53.550;9.926;2023-01-25T03:54:25;103262.16;;;1.00;95.32
43824;BME280;29470;53.550;9.926;2023-01-25T03:59:29;103256.91;;;1.40;94.26
43824;BME280;29470;53.550;9.926;2023-01-25T04:04:32;103256.69;;;1.38;93.76
43824;BME280;29470;53.550;9.926;2023-01-25T04:09:36;103252.06;;;1.30;94.49
43824;BME280;29470;53.550;9.926;2023-01-25T04:14:42;103256.22;;;0.54;96.13
43824;BME280;29470;53.550;9.926;2023-01-25T04:19:52;103241.34;;;0.91;95.25
43824;BME280;29470;53.550;9.926;2023-01-25T04:25:00;103244.50;;;1.07;93.53
43824;BME280;29470;53.550;9.926;2023-01-25T04:30:06;103236.38;;;1.15;91.63
43824;BME280;29470;53.550;9.926;2023-01-25T04:35:11;103236.38;;;1.15;90.72
43824;BME280;29470;53.550;9.926;2023-01-25T04:40:14;103230.19;;;0.91;91.17
43824;BME280;29470;53.550;9.926;2023-01-25T04:45:21;103222.97;;;1.11;87.70
43824;BME280;29470;53.550;9.926;2023-01-25T04:50:24;103226.34;;;0.70;90.65
43824;BME280;29470;53.550;9.926;2023-01-25T04:55:27;103213.75;;;0.88;91.78
43824;BME280;29470;53.550;9.926;2023-01-25T05:00:35;103213.81;;;0.77;93.76
43824;BME280;29470;53.550;9.926;2023-01-25T05:05:43;103210.78;;;0.85;92.97
43824;BME280;29470;53.550;9.926;2023-01-25T05:10:48;103200.63;;;0.74;91.91
43824;BME280;29470;53.550;9.926;2023-01-25T05:16:11;103196.38;;;0.97;91.32
43824;BME280;29470;53.550;9.926;2023-01-25T05:21:14;103198.34;;;1.23;88.51
43824;BME280;29470;53.550;9.926;2023-01-25T05:26:31;103188.63;;;1.20;87.98
43824;BME280;29470;53.550;9.926;2023-01-25T05:31:53;103188.34;;;0.77;89.91
43824;BME280;29470;53.550;9.926;2023-01-25T05:36:56;103182.88;;;1.04;89.52
43824;BME280;29470;53.550;9.926;2023-01-25T05:41:59;103174.44;;;0.81;89.63
43824;BME280;29470;53.550;9.926;2023-01-25T05:47:04;103171.66;;;0.73;92.13
43824;BME280;29470;53.550;9.926;2023-01-25T05:52:11;103171.22;;;0.70;91.62
43824;BME280;29470;53.550;9.926;2023-01-25T05:57:15;103162.78;;;0.94;93.34
43824;BME280;29470;53.550;9.926;2023-01-25T06:02:20;103160.00;;;0.98;91.14
43824;BME280;29470;53.550;9.926;2023-01-25T06:07:23;103144.13;;;1.18;91.06
43824;BME280;29470;53.550;9.926;2023-01-25T06:12:27;103147.69;;;1.43;86.56
43824;BME280;29470;53.550;9.926;2023-01-25T06:17:34;103148.28;;;1.23;88.61
43824;BME280;29470;53.550;9.926;2023-01-25T06:23:00;103157.56;;;0.64;92.38
43824;BME280;29470;53.550;9.926;2023-01-25T06:28:04;103157.06;;;0.78;92.31
43824;BME280;29470;53.550;9.926;2023-01-25T06:33:08;103168.00;;;0.60;94.78
43824;BME280;29470;53.550;9.926;2023-01-25T06:38:11;103156.00;;;1.12;90.43
43824;BME280;29470;53.550;9.926;2023-01-25T06:43:14;103158.84;;;0.96;91.41
43824;BME280;29470;53.550;9.926;2023-01-25T06:48:18;103161.03;;;0.76;92.61
43824;BME280;29470;53.550;9.926;2023-01-25T06:53:21;103156.03;;;1.00;89.72
43824;BME280;29470;53.550;9.926;2023-01-25T06:58:24;103165.34;;;0.88;90.12
43824;BME280;29470;53.550;9.926;2023-01-25T07:03:29;103158.94;;;0.73;92.65
43824;BME280;29470;53.550;9.926;2023-01-25T07:08:32;103149.75;;;1.45;87.74
43824;BME280;29470;53.550;9.926;2023-01-25T07:13:36;103145.16;;;1.01;89.43
43824;BME280;29470;53.550;9.926;2023-01-25T07:18:40;103146.34;;;0.92;92.94
43824;BME280;29470;53.550;9.926;2023-01-25T07:23:43;103136.63;;;0.90;93.88
43824;BME280;29470;53.550;9.926;2023-01-25T07:28:47;103129.06;;;0.72;93.80
43824;BME280;29470;53.550;9.926;2023-01-25T07:33:53;103126.41;;;0.90;95.52
43824;BME280;29470;53.550;9.926;2023-01-25T07:38:57;103124.56;;;0.88;95.68
43824;BME280;29470;53.550;9.926;2023-01-25T07:44:00;103119.84;;;0.56;95.03
43824;BME280;29470;53.550;9.926;2023-01-25T07:49:18;103114.00;;;0.74;93.96
43824;BME280;29470;53.550;9.926;2023-01-25T07:54:21;103112.66;;;0.65;94.27
43824;BME280;29470;53.550;9.926;2023-01-25T07:59:24;103106.78;;;0.83;93.48
43824;BME280;29470;53.550;9.926;2023-01-25T08:04:29;103101.53;;;1.11;89.91
43824;BME280;29470;53.550;9.926;2023-01-25T08:09:32;103089.94;;;1.43;89.88
43824;BME280;29470;53.550;9.926;2023-01-25T08:14:34;103071.84;;;1.47;91.81
43824;BME280;29470;53.550;9.926;2023-01-25T08:19:40;103085.47;;;1.54;91.95
43824;BME280;29470;53.550;9.926;2023-01-25T08:24:42;103083.16;;;1.25;90.84
43824;BME280;29470;53.550;9.926;2023-01-25T08:29:45;103078.75;;;1.24;91.08
43824;BME280;29470;53.550;9.926;2023-01-25T08:34:49;103072.66;;;0.52;92.80
43824;BME280;29470;53.550;9.926;2023-01-25T08:39:52;103066.00;;;1.24;91.40
43824;BME280;29470;53.550;9.926;2023-01-25T08:44:57;103059.16;;;1.66;86.77
43824;BME280;29470;53.550;9.926;2023-01-25T08:50:02;103044.72;;;1.72;86.79
43824;BME280;29470;53.550;9.926;2023-01-25T08:55:05;103028.38;;;1.83;85.20
43824;BME280;29470;53.550;9.926;2023-01-25T09:00:11;103028.72;;;1.73;84.16
43824;BME280;29470;53.550;9.926;2023-01-25T09:05:15;103034.19;;;1.82;85.19
43824;BME280;29470;53.550;9.926;2023-01-25T09:10:18;103029.06;;;1.82;85.33
43824;BME280;29470;53.550;9.926;2023-01-25T09:15:21;103024.75;;;1.51;88.21
43824;BME280;29470;53.550;9.926;2023-01-25T09:20:25;103010.19;;;1.44;86.58
43824;BME280;29470;53.550;9.926;2023-01-25T09:25:29;103015.75;;;1.72;89.06
43824;BME280;29470;53.550;9.926;2023-01-25T09:30:32;103007.16;;;1.71;88.41
43824;BME280;29470;53.550;9.926;2023-01-25T09:35:58;103007.28;;;1.36;87.23
43824;BME280;29470;53.550;9.926;2023-01-25T09:41:20;103007.28;;;1.30;88.56
43824;BME280;29470;53.550;9.926;2023-01-25T09:46:36;102998.66;;;1.41;91.48
43824;BME280;29470;53.550;9.926;2023-01-25T09:51:52;102997.53;;;1.03;88.73
43824;BME280;29470;53.550;9.926;2023-01-25T09:57:02;102992.13;;;1.43;89.33
43824;BME280;29470;53.550;9.926;2023-01-25T10:02:18;102975.72;;;1.84;85.20
43824;BME280;29470;53.550;9.926;2023-01-25T10:07:34;102971.63;;;1.97;85.54
43824;BME280;29470;53.550;9.926;2023-01-25T10:12:40;102980.59;;;1.64;85.28
43824;BME280;29470;53.550;9.926;2023-01-25T10:17:43;102965.81;;;1.31;88.43
43824;BME280;29470;53.550;9.926;2023-01-25T10:22:50;102967.59;;;1.62;88.30
43824;BME280;29470;53.550;9.926;2023-01-25T10:28:06;102960.16;;;1.64;87.67
43824;BME280;29470;53.550;9.926;2023-01-25T10:33:14;102947.06;;;1.73;85.83
43824;BME280;29470;53.550;9.926;2023-01-25T10:38:24;102934.19;;;1.42;86.10
43824;BME280;29470;53.550;9.926;2023-01-25T10:43:29;102941.44;;;1.33;86.82
43824;BME280;29470;53.550;9.926;2023-01-25T10:48:34;102923.56;;;2.00;84.97
43824;BME280;29470;53.550;9.926;2023-01-25T10:53:39;102911.19;;;2.41;81.29
43824;BME280;29470;53.550;9.926;2023-01-25T10:58:46;102916.44;;;1.73;84.47
43824;BME280;29470;53.550;9.926;2023-01-25T11:03:49;102908.84;;;1.25;87.08
43824;BME280;29470;53.550;9.926;2023-01-25T11:08:53;102888.63;;;1.51;87.23
43824;BME280;29470;53.550;9.926;2023-01-25T11:13:56;102877.09;;;2.03;84.06
43824;BME280;29470;53.550;9.926;2023-01-25T11:19:00;102862.41;;;2.39;83.42
43824;BME280;29470;53.550;9.926;2023-01-25T11:24:16;102849.00;;;2.53;81.51
43824;BME280;29470;53.550;9.926;2023-01-25T11:29:20;102832.66;;;2.58;80.55
43824;BME280;29470;53.550;9.926;2023-01-25T11:34:27;102831.25;;;1.79;84.91
43824;BME280;29470;53.550;9.926;2023-01-25T11:39:41;102819.06;;;1.52;87.12
43824;BME280;29470;53.550;9.926;2023-01-25T11:45:09;102807.16;;;1.39;86.63
43824;BME280;29470;53.550;9.926;2023-01-25T11:50:18;102797.25;;;0.92;89.11
43824;BME280;29470;53.550;9.926;2023-01-25T11:55:27;102784.66;;;1.92;87.10
43824;BME280;29470;53.550;9.926;2023-01-25T12:00:42;102779.19;;;1.34;86.89
43824;BME280;29470;53.550;9.926;2023-01-25T12:05:56;102769.13;;;1.41;86.22
43824;BME280;29470;53.550;9.926;2023-01-25T12:11:07;102748.69;;;2.10;86.18
43824;BME280;29470;53.550;9.926;2023-01-25T12:16:23;102734.19;;;1.84;87.50
43824;BME280;29470;53.550;9.926;2023-01-25T12:21:41;102732.44;;;1.65;87.99
43824;BME280;29470;53.550;9.926;2023-01-25T12:26:55;102719.69;;;1.77;85.46
43824;BME280;29470;53.550;9.926;2023-01-25T12:32:05;102710.50;;;1.41;88.15
43824;BME280;29470;53.550;9.926;2023-01-25T12:37:14;102698.97;;;1.69;88.20
43824;BME280;29470;53.550;9.926;2023-01-25T12:42:23;102673.13;;;2.17;86.42
43824;BME280;29470;53.550;9.926;2023-01-25T12:47:31;102660.34;;;2.04;84.27
43824;BME280;29470;53.550;9.926;2023-01-25T12:52:41;102662.53;;;1.38;88.65
43824;BME280;29470;53.550;9.926;2023-01-25T12:57:55;102667.78;;;1.27;90.08
43824;BME280;29470;53.550;9.926;2023-01-25T13:03:09;102655.69;;;1.13;91.25
43824;BME280;29470;53.550;9.926;2023-01-25T13:08:21;102643.94;;;1.26;92.15
43824;BME280;29470;53.550;9.926;2023-01-25T13:13:34;102640.75;;;1.22;92.93
43824;BME280;29470;53.550;9.926;2023-01-25T13:18:40;102622.38;;;1.43;92.25
43824;BME280;29470;53.550;9.926;2023-01-25T13:23:43;102615.09;;;1.33;90.65
43824;BME280;29470;53.550;9.926;2023-01-25T13:28:50;102621.06;;;1.21;92.90
43824;BME280;29470;53.550;9.926;2023-01-25T13:33:53;102611.22;;;1.29;91.73
43824;BME280;29470;53.550;9.926;2023-01-25T13:38:56;102597.72;;;0.99;93.52
43824;BME280;29470;53.550;9.926;2023-01-25T13:44:30;102587.47;;;1.36;93.49
43824;BME280;29470;53.550;9.926;2023-01-25T13:49:40;102568.41;;;1.40;92.13
43824;BME280;29470;53.550;9.926;2023-01-25T13:54:46;102576.34;;;1.04;94.87
43824;BME280;29470;53.550;9.926;2023-01-25T13:59:59;102579.03;;;1.43;94.61
43824;BME280;29470;53.550;9.926;2023-01-25T14:05:18;102568.22;;;1.77;92.93
43824;BME280;29470;53.550;9.926;2023-01-25T14:10:24;102562.94;;;1.18;93.03
43824;BME280;29470;53.550;9.926;2023-01-25T14:15:31;102567.38;;;1.00;96.74
43824;BME280;29470;53.550;9.926;2023-01-25T14:20:34;102559.53;;;1.43;95.97
43824;BME280;29470;53.550;9.926;2023-01-25T14:25:39;102560.41;;;1.63;94.02
43824;BME280;29470;53.550;9.926;2023-01-25T14:30:43;102559.25;;;1.73;91.95
43824;BME280;29470;53.550;9.926;2023-01-25T14:35:52;102548.06;;;1.66;92.83
43824;BME280;29470;53.550;9.926;2023-01-25T14:41:10;102535.69;;;1.82;92.59
43824;BME280;29470;53.550;9.926;2023-01-25T14:46:34;102543.13;;;1.67;90.65
43824;BME280;29470;53.550;9.926;2023-01-25T14:51:40;102537.41;;;1.88;92.50
43824;BME280;29470;53.550;9.926;2023-01-25T14:56:46;102533.03;;;2.00;92.67
43824;BME280;29470;53.550;9.926;2023-01-25T15:01:52;102528.63;;;1.86;93.35
43824;BME280;29470;53.550;9.926;2023-01-25T15:06:56;102528.53;;;1.66;94.63
43824;BME280;29470;53.550;9.926;2023-01-25T15:12:26;102524.28;;;1.59;95.60
43824;BME280;29470;53.550;9.926;2023-01-25T15:17:41;102533.25;;;1.63;94.47
43824;BME280;29470;53.550;9.926;2023-01-25T15:22:44;102533.75;;;1.60;93.00
43824;BME280;29470;53.550;9.926;2023-01-25T15:27:47;102519.56;;;1.37;92.52
43824;BME280;29470;53.550;9.926;2023-01-25T15:32:52;102517.22;;;1.64;95.85
43824;BME280;29470;53.550;9.926;2023-01-25T15:37:55;102506.09;;;1.51;95.18
43824;BME280;29470;53.550;9.926;2023-01-25T15:42:58;102499.53;;;0.82;98.70
43824;BME280;29470;53.550;9.926;2023-01-25T15:48:02;102488.13;;;0.86;100.00
43824;BME280;29470;53.550;9.926;2023-01-25T15:53:05;102477.94;;;0.86;100.00
43824;BME280;29470;53.550;9.926;2023-01-25T15:58:10;102474.16;;;1.21;100.00
43824;BME280;29470;53.550;9.926;2023-01-25T16:03:18;102469.41;;;0.85;100.00
43824;BME280;29470;53.550;9.926;2023-01-25T16:08:21;102475.69;;;0.50;100.00
43824;BME280;29470;53.550;9.926;2023-01-25T16:13:24;102473.00;;;0.43;100.00
43824;BME280;29470;53.550;9.926;2023-01-25T16:18:28;102454.53;;;0.38;100.00
43824;BME280;29470;53.550;9.926;2023-01-25T16:23:31;102470.72;;;0.57;100.00
43824;BME280;29470;53.550;9.926;2023-01-25T16:28:34;102462.88;;;0.19;100.00
43824;BME280;29470;53.550;9.926;2023-01-25T16:33:39;102452.16;;;0.90;100.00
43824;BME280;29470;53.550;9.926;2023-01-25T16:38:42;102460.25;;;1.06;100.00
43824;BME280;29470;53.550;9.926;2023-01-25T16:43:46;102454.44;;;1.07;100.00
43824;BME280;29470;53.550;9.926;2023-01-25T16:48:51;102447.81;;;0.39;100.00
43824;BME280;29470;53.550;9.926;2023-01-25T16:53:55;102453.34;;;0.42;100.00
43824;BME280;29470;53.550;9.926;2023-01-25T16:59:00;102439.81;;;0.30;100.00
43824;BME280;29470;53.550;9.926;2023-01-25T17:04:06;102456.88;;;-0.01;100.00
43824;BME280;29470;53.550;9.926;2023-01-25T17:09:11;102457.72;;;0.24;100.00
43824;BME280;29470;53.550;9.926;2023-01-25T17:14:24;102446.63;;;-0.13;100.00
43824;BME280;29470;53.550;9.926;2023-01-25T17:19:29;102442.88;;;0.09;100.00
43824;BME280;29470;53.550;9.926;2023-01-25T17:24:31;102442.94;;;0.03;100.00
43824;BME280;29470;53.550;9.926;2023-01-25T17:29:36;102436.31;;;0.67;100.00
43824;BME280;29470;53.550;9.926;2023-01-25T17:34:40;102425.50;;;1.20;100.00
43824;BME280;29470;53.550;9.926;2023-01-25T17:39:43;102411.91;;;0.43;100.00
43824;BME280;29470;53.550;9.926;2023-01-25T17:44:45;102418.47;;;0.35;100.00
43824;BME280;29470;53.550;9.926;2023-01-25T17:49:50;102414.38;;;0.30;100.00
43824;BME280;29470;53.550;9.926;2023-01-25T17:54:53;102402.13;;;-0.04;100.00
43824;BME280;29470;53.550;9.926;2023-01-25T17:59:55;102386.00;;;-0.10;100.00
43824;BME280;29470;53.550;9.926;2023-01-25T18:05:00;102381.94;;;0.35;100.00
43824;BME280;29470;53.550;9.926;2023-01-25T18:10:03;102367.31;;;0.21;100.00
43824;BME280;29470;53.550;9.926;2023-01-25T18:15:07;102375.09;;;0.72;100.00
43824;BME280;29470;53.550;9.926;2023-01-25T18:20:12;102362.75;;;0.31;100.00
43824;BME280;29470;53.550;9.926;2023-01-25T18:25:29;102349.53;;;0.34;100.00
43824;BME280;29470;53.550;9.926;2023-01-25T18:30:34;102339.28;;;0.08;100.00
43824;BME280;29470;53.550;9.926;2023-01-25T18:35:38;102338.44;;;0.33;100.00
43824;BME280;29470;53.550;9.926;2023-01-25T18:40:43;102333.97;;;0.38;100.00
43824;BME280;29470;53.550;9.926;2023-01-25T18:45:52;102317.50;;;0.10;100.00
43824;BME280;29470;53.550;9.926;2023-01-25T18:50:59;102321.94;;;0.05;100.00
43824;BME280;29470;53.550;9.926;2023-01-25T18:56:03;102323.28;;;-0.41;100.00
43824;BME280;29470;53.550;9.926;2023-01-25T19:01:10;102315.34;;;0.00;100.00
43824;BME280;29470;53.550;9.926;2023-01-25T19:06:15;102295.50;;;0.10;100.00
43824;BME280;29470;53.550;9.926;2023-01-25T19:11:20;102293.69;;;0.54;98.79
43824;BME280;29470;53.550;9.926;2023-01-25T19:16:23;102294.16;;;-0.06;99.55
43824;BME280;29470;53.550;9.926;2023-01-25T19:21:27;102295.03;;;-0.19;100.00
43824;BME280;29470;53.550;9.926;2023-01-25T19:26:30;102285.41;;;-0.08;100.00
43824;BME280;29470;53.550;9.926;2023-01-25T19:31:34;102276.38;;;0.64;100.00
43824;BME280;29470;53.550;9.926;2023-01-25T19:36:39;102263.84;;;0.79;100.00
43824;BME280;29470;53.550;9.926;2023-01-25T19:41:46;102257.44;;;0.75;97.72
43824;BME280;29470;53.550;9.926;2023-01-25T19:46:49;102254.88;;;0.62;97.67
43824;BME280;29470;53.550;9.926;2023-01-25T19:51:54;102237.06;;;0.62;97.44
43824;BME280;29470;53.550;9.926;2023-01-25T19:56:58;102237.66;;;0.54;97.86
43824;BME280;29470;53.550;9.926;2023-01-25T20:02:01;102242.38;;;0.64;98.63
43824;BME280;29470;53.550;9.926;2023-01-25T20:07:05;102232.19;;;0.64;98.78
43824;BME280;29470;53.550;9.926;2023-01-25T20:12:08;102218.00;;;0.53;98.23
43824;BME280;29470;53.550;9.926;2023-01-25T20:17:11;102221.91;;;0.56;98.21
43824;BME280;29470;53.550;9.926;2023-01-25T20:22:17;102218.03;;;0.66;97.07
43824;BME280;29470;53.550;9.926;2023-01-25T20:27:19;102204.56;;;0.67;96.09
43824;BME280;29470;53.550;9.926;2023-01-25T20:32:22;102192.25;;;0.57;98.17
43824;BME280;29470;53.550;9.926;2023-01-25T20:37:35;102194.97;;;0.71;99.17
43824;BME280;29470;53.550;9.926;2023-01-25T20:42:38;102207.53;;;0.70;97.95
43824;BME280;29470;53.550;9.926;2023-01-25T20:47:45;102208.34;;;0.76;98.57
43824;BME280;29470;53.550;9.926;2023-01-25T20:58:50;102205.34;;;0.86;97.33
43824;BME280;29470;53.550;9.926;2023-01-25T21:04:06;102200.78;;;0.44;100.00
43824;BME280;29470;53.550;9.926;2023-01-25T21:09:30;102192.16;;;0.63;100.00
43824;BME280;29470;53.550;9.926;2023-01-25T21:14:40;102198.34;;;0.52;100.00
43824;BME280;29470;53.550;9.926;2023-01-25T21:19:51;102193.28;;;0.39;100.00
43824;BME280;29470;53.550;9.926;2023-01-25T21:25:33;102196.69;;;0.13;100.00
43824;BME280;29470;53.550;9.926;2023-01-25T21:31:12;102188.69;;;-0.21;100.00
43824;BME280;29470;53.550;9.926;2023-01-25T21:36:58;102178.53;;;-0.21;100.00
43824;BME280;29470;53.550;9.926;2023-01-25T21:42:21;102177.22;;;0.01;100.00
43824;BME280;29470;53.550;9.926;2023-01-25T21:47:32;102181.19;;;-0.14;100.00
43824;BME280;29470;53.550;9.926;2023-01-25T21:52:52;102165.66;;;0.16;100.00
43824;BME280;29470;53.550;9.926;2023-01-25T21:57:55;102160.56;;;0.29;100.00
43824;BME280;29470;53.550;9.926;2023-01-25T22:03:00;102168.19;;;0.03;100.00
43824;BME280;29470;53.550;9.926;2023-01-25T22:08:03;102152.72;;;0.40;100.00
43824;BME280;29470;53.550;9.926;2023-01-25T22:13:06;102144.78;;;0.57;100.00
43824;BME280;29470;53.550;9.926;2023-01-25T22:18:10;102153.84;;;0.55;100.00
43824;BME280;29470;53.550;9.926;2023-01-25T22:23:12;102138.56;;;0.42;100.00
43824;BME280;29470;53.550;9.926;2023-01-25T22:28:18;102125.84;;;0.55;100.00
43824;BME280;29470;53.550;9.926;2023-01-25T22:33:22;102140.41;;;0.56;100.00
43824;BME280;29470;53.550;9.926;2023-01-25T22:38:25;102136.41;;;0.84;100.00
43824;BME280;29470;53.550;9.926;2023-01-25T22:43:28;102118.44;;;0.90;100.00
43824;BME280;29470;53.550;9.926;2023-01-25T22:48:33;102125.94;;;0.96;100.00
43824;BME280;29470;53.550;9.926;2023-01-25T22:53:36;102127.69;;;0.90;100.00
43824;BME280;29470;53.550;9.926;2023-01-25T22:58:40;102113.56;;;0.79;100.00
43824;BME280;29470;53.550;9.926;2023-01-25T23:03:46;102122.28;;;0.48;100.00
43824;BME280;29470;53.550;9.926;2023-01-25T23:08:49;102117.28;;;0.55;100.00
43824;BME280;29470;53.550;9.926;2023-01-25T23:13:52;102118.31;;;0.24;100.00
43824;BME280;29470;53.550;9.926;2023-01-25T23:19:14;102104.72;;;0.69;100.00
43824;BME280;29470;53.550;9.926;2023-01-25T23:24:17;102108.44;;;0.20;100.00
43824;BME280;29470;53.550;9.926;2023-01-25T23:29:20;102092.03;;;0.43;100.00
43824;BME280;29470;53.550;9.926;2023-01-25T23:34:25;102087.66;;;0.42;100.00
43824;BME280;29470;53.550;9.926;2023-01-25T23:39:27;102087.66;;;0.88;100.00
43824;BME280;29470;53.550;9.926;2023-01-25T23:44:30;102073.34;;;0.76;100.00
43824;BME280;29470;53.550;9.926;2023-01-25T23:49:34;102069.56;;;0.34;100.00
43824;BME280;29470;53.550;9.926;2023-01-25T23:54:37;102063.78;;;0.09;100.00
43824;BME280;29470;53.550;9.926;2023-01-25T23:59:40;102067.22;;;-0.30;100.00
